Dauntless Aviation
Greetings, Guest! To participate, [sign up for a free account] or [log in]
Airports South America Argentina
SABE
AEP

Aeroparque Jorge Newbery

Buenos Aires, ARGENTINA

Airport Info
Edit

Location

Latitude / Longitude: 34°33'33"S / 58°24'56"W
  34°33.552'S / 58°24.936'W
  -34.5592 / -58.4156

Nearby radio navigation aids

FDO SAN FERNANDO VOR/DME. 132.7° 10.6nm from FDO to field.
OP AEROPARQUE JORGE NEWBERY NDB. 131.1° 4.3nm from OP to field.

Runway Information

Runway 13 /31

Dimensions: 6890 x 131 ft.
Surface: ASP
 
Runway 13
Runway 31
Latitude: -34.553942 -34.563844
Longitude: -58.425247 -58.407506
Elevation: 18 ft. 18 ft.
Runway true heading: 126.3 306.3
 

Instrument Procedures

STARs (Standard Terminal Arrivals)

  STAR Rwy 13/16 PAGON7C SANANTONIO7C ASADA7C VALOS8C
  STAR Rwy 13/16 SURBO7A SARGO7C KOVUK7C TENIL7C BELGRANO7C
  STAR Rwy 31 SURBO2B SARGO7D KOVUK7D TENIL7D BELGRANO7D VALOS7D ASADA7D
  STAR Rwy 31 PAGON7D SANANTONIO7D

IAPs (Instrument Approach Procedures)

  VOR (DME) ILS (DME) Rwy 13 (From VANAR)
  VOR (DME) ILS (DME) Rwy 13
  LI ILS (DME) Rwy 13
  VOR (DME) LO LI Rwy 13 (From VANAR)
  LI LO LI Rwy 13
  LI Rwy 13 (From QUILMES)
  LI Rwy 31

Departure Procedures

  SID Rwy 13/31
  SID Rwy 13/31 Textual Description
  SID Rwy 13/31 LANDA3B BIVAM3B ATOVO3B
  SID 13/31 LANDA3B BIVAM3B ATOVO3B Textual Description
  SID Rwy 13/31 KUKEN7 SUROBO7 DORVO7 LAPLATA7
  SID Rwy 13/31 KUKEN7 SUROBO7 DORVO7 LAPLATA7 Textual Description
  SID S Rwy 13/31
  SID Rwy 13/31 Textual Description
Satellite photo at:
Airport distance calculator
From:
Weather Reports

METAR

SABE

SABE 211200Z 33003KT 9999 FEW035 SCT100 17/13 Q1017
SAEZ
16.2nm S
SAEZ 211200Z 00000KT CAVOK 15/13 Q1018
SUCA
30.3nm NE
SUCA 211200Z 33008KT 9999 FEW023 BKN060 XX/XX QXXXX

TAF

SABE
TAF SABE 211100Z 2112/2212 27005KT 8000 RA BKN040 TX21/2118Z TN13/2209Z BECMG 2116/2118 18010KT 9999 SCT030 BECMG 2202/2204 16010KT BECMG 2208/2210 09005KT
SADF
10.6nm W
TAF SADF 211100Z 2112/2212 VRB05KT 7000 SHRA SCT025 BKN050 BKN100 TX21/2118Z TN13/2210Z BECMG 2117/2119 16010KT CAVOK
SAEZ
16.2nm S
TAF SAEZ 211100Z 2112/2212 27006KT 9000 SCT020 BKN100 TX22/2118Z TN09/2210Z BECMG 2115/2118 20007KT 9999 SCT040 BECMG 2200/2203 13010KT PROB30 TEMPO 2207/2211 2000 BR
SUCA
30.3nm NE
SUCA 211100Z 2112/2212 26010KT 9999 FEW026 BKN080 TX20/2118Z TN14/2210Z PROB30 TEMPO 2112/2116 7000 RA SCT020 OVC060 BECMG 2120/2200 18013KT
Safelog

 

Dauntless Aviation

© 2007-2014 Dauntless Aviation, all rights reserved
Information provided via PilotNav comes from a variety of official and unofficial data sources. As errors are possible, do not use PilotNav for primary flight planning purposes. Verify any information that you receive via PilotNav with current and canonical charts and other official documents. The material in this database is subject to database copyrights held by Dauntless Aviation and may not be copied without the express permission of Dauntless Aviation - licenses for use of part of all of this data are available for purchase; enquire via the Dauntless Aviation helpdesk. A number of mechanisms and markers exist in the database to protect against and identify infringement / copyright. Automated queries against this website are stictly prohibited, and all activity is logged and analyzed.